sensor_id;sensor_type;location;lat;lon;timestamp;P1;durP1;ratioP1;P2;durP2;ratioP2
27223;SDS011;14965;50.660;13.226;2024-03-23T00:55:33;16.92;;;11.55;;
27223;SDS011;14965;50.660;13.226;2024-03-23T00:57:59;17.25;;;11.32;;
27223;SDS011;14965;50.660;13.226;2024-03-23T01:00:25;17.88;;;11.18;;
27223;SDS011;14965;50.660;13.226;2024-03-23T01:02:51;17.67;;;11.48;;
27223;SDS011;14965;50.660;13.226;2024-03-23T01:05:17;18.98;;;11.30;;
27223;SDS011;14965;50.660;13.226;2024-03-23T01:07:43;18.45;;;11.68;;
27223;SDS011;14965;50.660;13.226;2024-03-23T01:10:09;18.52;;;10.98;;
27223;SDS011;14965;50.660;13.226;2024-03-23T01:12:36;17.98;;;11.35;;
27223;SDS011;14965;50.660;13.226;2024-03-23T01:15:02;20.38;;;11.82;;
27223;SDS011;14965;50.660;13.226;2024-03-23T01:17:28;19.60;;;11.80;;
27223;SDS011;14965;50.660;13.226;2024-03-23T01:19:54;18.75;;;11.18;;
27223;SDS011;14965;50.660;13.226;2024-03-23T01:22:20;16.80;;;10.68;;
27223;SDS011;14965;50.660;13.226;2024-03-23T01:24:46;22.50;;;12.38;;
27223;SDS011;14965;50.660;13.226;2024-03-23T01:27:12;17.25;;;10.95;;
27223;SDS011;14965;50.660;13.226;2024-03-23T01:29:39;18.92;;;12.10;;
27223;SDS011;14965;50.660;13.226;2024-03-23T01:32:05;19.10;;;11.40;;
27223;SDS011;14965;50.660;13.226;2024-03-23T01:34:31;19.95;;;11.93;;
27223;SDS011;14965;50.660;13.226;2024-03-23T01:36:58;18.48;;;10.82;;
27223;SDS011;14965;50.660;13.226;2024-03-23T01:39:24;16.40;;;11.25;;
27223;SDS011;14965;50.660;13.226;2024-03-23T01:41:50;22.08;;;12.52;;
27223;SDS011;14965;50.660;13.226;2024-03-23T01:44:16;21.50;;;11.77;;
27223;SDS011;14965;50.660;13.226;2024-03-23T01:46:44;16.30;;;11.13;;
27223;SDS011;14965;50.660;13.226;2024-03-23T01:49:10;22.98;;;12.40;;
27223;SDS011;14965;50.660;13.226;2024-03-23T01:51:37;20.15;;;12.75;;
27223;SDS011;14965;50.660;13.226;2024-03-23T01:54:04;22.05;;;11.82;;
27223;SDS011;14965;50.660;13.226;2024-03-23T01:56:32;22.47;;;12.23;;
27223;SDS011;14965;50.660;13.226;2024-03-23T01:58:58;18.50;;;11.52;;
27223;SDS011;14965;50.660;13.226;2024-03-23T02:01:24;21.63;;;13.15;;
27223;SDS011;14965;50.660;13.226;2024-03-23T02:03:51;21.67;;;12.90;;
27223;SDS011;14965;50.660;13.226;2024-03-23T02:06:17;23.92;;;13.23;;
27223;SDS011;14965;50.660;13.226;2024-03-23T02:08:43;22.42;;;12.75;;
27223;SDS011;14965;50.660;13.226;2024-03-23T02:11:09;20.45;;;12.68;;
27223;SDS011;14965;50.660;13.226;2024-03-23T02:13:35;19.88;;;13.27;;
27223;SDS011;14965;50.660;13.226;2024-03-23T02:16:01;23.38;;;12.40;;
27223;SDS011;14965;50.660;13.226;2024-03-23T02:18:27;20.50;;;12.63;;
27223;SDS011;14965;50.660;13.226;2024-03-23T02:20:55;22.48;;;13.13;;
27223;SDS011;14965;50.660;13.226;2024-03-23T02:23:22;24.67;;;13.95;;
27223;SDS011;14965;50.660;13.226;2024-03-23T02:25:48;19.08;;;12.88;;
27223;SDS011;14965;50.660;13.226;2024-03-23T02:28:13;19.13;;;12.10;;
27223;SDS011;14965;50.660;13.226;2024-03-23T02:30:39;16.65;;;11.88;;
27223;SDS011;14965;50.660;13.226;2024-03-23T02:33:05;21.80;;;11.77;;
27223;SDS011;14965;50.660;13.226;2024-03-23T02:35:31;22.02;;;12.55;;
27223;SDS011;14965;50.660;13.226;2024-03-23T02:37:58;18.25;;;12.23;;
27223;SDS011;14965;50.660;13.226;2024-03-23T02:40:25;20.40;;;12.38;;
27223;SDS011;14965;50.660;13.226;2024-03-23T02:42:53;18.58;;;11.77;;
27223;SDS011;14965;50.660;13.226;2024-03-23T02:45:19;21.27;;;12.63;;
27223;SDS011;14965;50.660;13.226;2024-03-23T02:47:45;25.35;;;12.98;;
27223;SDS011;14965;50.660;13.226;2024-03-23T02:50:11;24.65;;;12.93;;
27223;SDS011;14965;50.660;13.226;2024-03-23T02:52:37;21.85;;;12.95;;
27223;SDS011;14965;50.660;13.226;2024-03-23T02:55:03;23.92;;;13.55;;
27223;SDS011;14965;50.660;13.226;2024-03-23T02:57:31;23.05;;;13.40;;
27223;SDS011;14965;50.660;13.226;2024-03-23T02:59:56;22.90;;;13.20;;
27223;SDS011;14965;50.660;13.226;2024-03-23T03:02:22;21.77;;;12.80;;
27223;SDS011;14965;50.660;13.226;2024-03-23T03:04:48;24.50;;;12.50;;
27223;SDS011;14965;50.660;13.226;2024-03-23T03:07:14;19.60;;;12.10;;
27223;SDS011;14965;50.660;13.226;2024-03-23T03:09:40;21.55;;;12.93;;
27223;SDS011;14965;50.660;13.226;2024-03-23T03:12:06;23.75;;;13.10;;
27223;SDS011;14965;50.660;13.226;2024-03-23T03:14:33;23.80;;;13.65;;
27223;SDS011;14965;50.660;13.226;2024-03-23T03:16:59;21.70;;;13.07;;
27223;SDS011;14965;50.660;13.226;2024-03-23T03:19:26;23.95;;;13.48;;
27223;SDS011;14965;50.660;13.226;2024-03-23T03:21:52;20.98;;;13.55;;
27223;SDS011;14965;50.660;13.226;2024-03-23T03:24:18;24.20;;;14.15;;
27223;SDS011;14965;50.660;13.226;2024-03-23T03:26:44;21.60;;;13.63;;
27223;SDS011;14965;50.660;13.226;2024-03-23T03:29:10;22.20;;;13.68;;
27223;SDS011;14965;50.660;13.226;2024-03-23T03:31:37;23.25;;;13.75;;
27223;SDS011;14965;50.660;13.226;2024-03-23T03:34:03;26.20;;;13.00;;
27223;SDS011;14965;50.660;13.226;2024-03-23T03:36:29;24.88;;;13.43;;
27223;SDS011;14965;50.660;13.226;2024-03-23T03:38:55;24.50;;;13.80;;
27223;SDS011;14965;50.660;13.226;2024-03-23T03:41:21;23.20;;;13.10;;
27223;SDS011;14965;50.660;13.226;2024-03-23T03:43:47;27.13;;;15.02;;
27223;SDS011;14965;50.660;13.226;2024-03-23T03:46:13;25.20;;;14.15;;
27223;SDS011;14965;50.660;13.226;2024-03-23T03:48:40;24.63;;;13.68;;
27223;SDS011;14965;50.660;13.226;2024-03-23T03:51:06;20.52;;;13.43;;
27223;SDS011;14965;50.660;13.226;2024-03-23T03:53:32;23.52;;;14.85;;
27223;SDS011;14965;50.660;13.226;2024-03-23T03:56:00;23.15;;;14.18;;
27223;SDS011;14965;50.660;13.226;2024-03-23T03:58:26;28.92;;;15.55;;
27223;SDS011;14965;50.660;13.226;2024-03-23T04:00:52;27.17;;;15.80;;
27223;SDS011;14965;50.660;13.226;2024-03-23T04:03:18;26.15;;;14.95;;
27223;SDS011;14965;50.660;13.226;2024-03-23T04:05:50;25.40;;;15.40;;
27223;SDS011;14965;50.660;13.226;2024-03-23T04:08:17;27.15;;;15.13;;
27223;SDS011;14965;50.660;13.226;2024-03-23T04:10:43;25.85;;;15.38;;
27223;SDS011;14965;50.660;13.226;2024-03-23T04:13:08;24.75;;;15.85;;
27223;SDS011;14965;50.660;13.226;2024-03-23T04:15:34;25.83;;;14.50;;
27223;SDS011;14965;50.660;13.226;2024-03-23T04:18:00;24.92;;;15.32;;
27223;SDS011;14965;50.660;13.226;2024-03-23T04:20:26;29.15;;;15.68;;
27223;SDS011;14965;50.660;13.226;2024-03-23T04:22:53;27.80;;;14.95;;
27223;SDS011;14965;50.660;13.226;2024-03-23T04:25:19;29.58;;;15.43;;
27223;SDS011;14965;50.660;13.226;2024-03-23T04:27:45;27.02;;;15.75;;
27223;SDS011;14965;50.660;13.226;2024-03-23T04:30:11;26.27;;;16.00;;
27223;SDS011;14965;50.660;13.226;2024-03-23T04:32:38;27.95;;;16.00;;
27223;SDS011;14965;50.660;13.226;2024-03-23T04:35:04;30.17;;;16.40;;
27223;SDS011;14965;50.660;13.226;2024-03-23T04:37:31;30.10;;;17.13;;
27223;SDS011;14965;50.660;13.226;2024-03-23T04:39:59;27.17;;;15.00;;
27223;SDS011;14965;50.660;13.226;2024-03-23T04:42:24;27.98;;;16.40;;
27223;SDS011;14965;50.660;13.226;2024-03-23T04:44:50;30.75;;;16.90;;
27223;SDS011;14965;50.660;13.226;2024-03-23T04:47:16;28.38;;;15.98;;
27223;SDS011;14965;50.660;13.226;2024-03-23T04:49:42;27.00;;;15.70;;
27223;SDS011;14965;50.660;13.226;2024-03-23T04:52:08;30.95;;;16.67;;
27223;SDS011;14965;50.660;13.226;2024-03-23T04:54:34;30.73;;;17.48;;
27223;SDS011;14965;50.660;13.226;2024-03-23T04:57:01;30.30;;;16.70;;
27223;SDS011;14965;50.660;13.226;2024-03-23T04:59:27;28.52;;;16.80;;
27223;SDS011;14965;50.660;13.226;2024-03-23T05:01:53;26.02;;;15.80;;
27223;SDS011;14965;50.660;13.226;2024-03-23T05:04:18;24.50;;;15.65;;
27223;SDS011;14965;50.660;13.226;2024-03-23T05:06:44;21.42;;;14.50;;
27223;SDS011;14965;50.660;13.226;2024-03-23T05:09:10;26.90;;;15.85;;
27223;SDS011;14965;50.660;13.226;2024-03-23T05:11:36;29.50;;;16.38;;
27223;SDS011;14965;50.660;13.226;2024-03-23T05:14:03;26.67;;;15.80;;
27223;SDS011;14965;50.660;13.226;2024-03-23T05:16:29;25.30;;;14.65;;
27223;SDS011;14965;50.660;13.226;2024-03-23T05:18:55;25.92;;;14.50;;
27223;SDS011;14965;50.660;13.226;2024-03-23T05:21:21;22.85;;;13.80;;
27223;SDS011;14965;50.660;13.226;2024-03-23T05:23:47;25.58;;;13.55;;
27223;SDS011;14965;50.660;13.226;2024-03-23T05:26:13;20.27;;;13.30;;
27223;SDS011;14965;50.660;13.226;2024-03-23T05:28:39;22.20;;;14.13;;
27223;SDS011;14965;50.660;13.226;2024-03-23T05:31:06;25.35;;;13.85;;
27223;SDS011;14965;50.660;13.226;2024-03-23T05:33:32;16.30;;;10.80;;
27223;SDS011;14965;50.660;13.226;2024-03-23T05:35:58;19.60;;;12.02;;
27223;SDS011;14965;50.660;13.226;2024-03-23T05:38:26;20.02;;;12.38;;
27223;SDS011;14965;50.660;13.226;2024-03-23T05:40:53;20.88;;;12.18;;
27223;SDS011;14965;50.660;13.226;2024-03-23T05:43:19;18.35;;;11.50;;
27223;SDS011;14965;50.660;13.226;2024-03-23T05:45:45;19.55;;;12.13;;
27223;SDS011;14965;50.660;13.226;2024-03-23T05:48:12;19.10;;;11.00;;
27223;SDS011;14965;50.660;13.226;2024-03-23T05:50:38;20.27;;;11.88;;
27223;SDS011;14965;50.660;13.226;2024-03-23T05:53:04;20.67;;;11.82;;
27223;SDS011;14965;50.660;13.226;2024-03-23T05:55:30;17.80;;;10.93;;
27223;SDS011;14965;50.660;13.226;2024-03-23T05:57:56;19.90;;;11.55;;
27223;SDS011;14965;50.660;13.226;2024-03-23T06:00:22;20.83;;;11.95;;
27223;SDS011;14965;50.660;13.226;2024-03-23T06:02:47;17.48;;;11.82;;
27223;SDS011;14965;50.660;13.226;2024-03-23T06:05:15;17.65;;;11.38;;
27223;SDS011;14965;50.660;13.226;2024-03-23T06:07:41;18.23;;;12.70;;
27223;SDS011;14965;50.660;13.226;2024-03-23T06:10:07;19.50;;;12.65;;
27223;SDS011;14965;50.660;13.226;2024-03-23T06:12:33;19.65;;;12.40;;
27223;SDS011;14965;50.660;13.226;2024-03-23T06:14:59;23.23;;;13.10;;
27223;SDS011;14965;50.660;13.226;2024-03-23T06:17:25;20.90;;;12.93;;
27223;SDS011;14965;50.660;13.226;2024-03-23T06:19:51;20.27;;;10.93;;
27223;SDS011;14965;50.660;13.226;2024-03-23T06:22:18;19.77;;;11.82;;
27223;SDS011;14965;50.660;13.226;2024-03-23T06:24:44;20.65;;;12.50;;
27223;SDS011;14965;50.660;13.226;2024-03-23T06:27:10;19.45;;;11.40;;
27223;SDS011;14965;50.660;13.226;2024-03-23T06:29:36;23.38;;;13.05;;
27223;SDS011;14965;50.660;13.226;2024-03-23T06:32:02;22.90;;;13.27;;
27223;SDS011;14965;50.660;13.226;2024-03-23T06:34:28;21.58;;;13.48;;
27223;SDS011;14965;50.660;13.226;2024-03-23T06:36:53;20.25;;;12.73;;
27223;SDS011;14965;50.660;13.226;2024-03-23T06:39:21;23.67;;;14.82;;
27223;SDS011;14965;50.660;13.226;2024-03-23T06:41:51;22.75;;;13.32;;
27223;SDS011;14965;50.660;13.226;2024-03-23T06:44:18;22.40;;;13.85;;
27223;SDS011;14965;50.660;13.226;2024-03-23T06:46:44;19.77;;;13.68;;
27223;SDS011;14965;50.660;13.226;2024-03-23T06:49:10;20.38;;;11.90;;
27223;SDS011;14965;50.660;13.226;2024-03-23T06:51:36;22.25;;;13.88;;
27223;SDS011;14965;50.660;13.226;2024-03-23T06:54:02;21.40;;;11.82;;
27223;SDS011;14965;50.660;13.226;2024-03-23T06:56:30;22.35;;;11.10;;
27223;SDS011;14965;50.660;13.226;2024-03-23T06:58:56;16.55;;;10.15;;
27223;SDS011;14965;50.660;13.226;2024-03-23T07:01:22;14.48;;;9.23;;
27223;SDS011;14965;50.660;13.226;2024-03-23T07:03:48;13.35;;;9.55;;
27223;SDS011;14965;50.660;13.226;2024-03-23T07:06:14;13.68;;;7.85;;
27223;SDS011;14965;50.660;13.226;2024-03-23T07:08:40;14.25;;;8.95;;
27223;SDS011;14965;50.660;13.226;2024-03-23T07:11:06;13.80;;;8.60;;
27223;SDS011;14965;50.660;13.226;2024-03-23T07:13:33;10.57;;;7.05;;
27223;SDS011;14965;50.660;13.226;2024-03-23T07:15:59;9.80;;;6.40;;
27223;SDS011;14965;50.660;13.226;2024-03-23T07:18:25;9.85;;;6.15;;
27223;SDS011;14965;50.660;13.226;2024-03-23T07:20:54;7.55;;;5.25;;
27223;SDS011;14965;50.660;13.226;2024-03-23T07:23:21;8.32;;;5.22;;
27223;SDS011;14965;50.660;13.226;2024-03-23T07:25:55;9.20;;;5.50;;
27223;SDS011;14965;50.660;13.226;2024-03-23T07:28:22;8.77;;;5.68;;
27223;SDS011;14965;50.660;13.226;2024-03-23T07:30:49;8.38;;;5.75;;
27223;SDS011;14965;50.660;13.226;2024-03-23T07:33:28;10.15;;;5.60;;
27223;SDS011;14965;50.660;13.226;2024-03-23T07:35:54;7.68;;;4.78;;
27223;SDS011;14965;50.660;13.226;2024-03-23T07:38:21;7.20;;;5.07;;
27223;SDS011;14965;50.660;13.226;2024-03-23T07:40:47;8.30;;;4.88;;
27223;SDS011;14965;50.660;13.226;2024-03-23T07:43:13;7.70;;;5.07;;
27223;SDS011;14965;50.660;13.226;2024-03-23T07:45:38;6.22;;;4.47;;
27223;SDS011;14965;50.660;13.226;2024-03-23T07:48:06;8.07;;;5.18;;
27223;SDS011;14965;50.660;13.226;2024-03-23T07:50:32;7.57;;;5.00;;
27223;SDS011;14965;50.660;13.226;2024-03-23T07:52:58;7.22;;;4.60;;
27223;SDS011;14965;50.660;13.226;2024-03-23T07:55:24;6.78;;;4.60;;
27223;SDS011;14965;50.660;13.226;2024-03-23T07:57:50;6.32;;;4.30;;
27223;SDS011;14965;50.660;13.226;2024-03-23T08:00:17;8.77;;;4.40;;
27223;SDS011;14965;50.660;13.226;2024-03-23T08:02:43;6.65;;;4.38;;
27223;SDS011;14965;50.660;13.226;2024-03-23T08:05:10;6.10;;;4.35;;
27223;SDS011;14965;50.660;13.226;2024-03-23T08:07:36;8.10;;;4.80;;
27223;SDS011;14965;50.660;13.226;2024-03-23T08:10:02;9.15;;;5.00;;
27223;SDS011;14965;50.660;13.226;2024-03-23T08:12:29;7.35;;;5.00;;
27223;SDS011;14965;50.660;13.226;2024-03-23T08:14:56;7.22;;;5.35;;
27223;SDS011;14965;50.660;13.226;2024-03-23T08:17:22;6.78;;;5.15;;
27223;SDS011;14965;50.660;13.226;2024-03-23T08:19:48;7.78;;;5.97;;
27223;SDS011;14965;50.660;13.226;2024-03-23T08:22:15;10.57;;;6.70;;
27223;SDS011;14965;50.660;13.226;2024-03-23T08:24:41;11.77;;;7.32;;
27223;SDS011;14965;50.660;13.226;2024-03-23T08:27:07;14.77;;;8.52;;
27223;SDS011;14965;50.660;13.226;2024-03-23T08:29:33;15.27;;;10.77;;
27223;SDS011;14965;50.660;13.226;2024-03-23T08:31:59;17.27;;;11.13;;
27223;SDS011;14965;50.660;13.226;2024-03-23T08:34:24;17.13;;;10.02;;
27223;SDS011;14965;50.660;13.226;2024-03-23T08:36:50;18.10;;;11.35;;
27223;SDS011;14965;50.660;13.226;2024-03-23T08:39:17;20.90;;;12.15;;
27223;SDS011;14965;50.660;13.226;2024-03-23T08:41:43;20.45;;;12.68;;
27223;SDS011;14965;50.660;13.226;2024-03-23T08:44:09;17.48;;;12.32;;
27223;SDS011;14965;50.660;13.226;2024-03-23T08:46:35;19.63;;;12.20;;
27223;SDS011;14965;50.660;13.226;2024-03-23T08:49:01;17.83;;;12.55;;
27223;SDS011;14965;50.660;13.226;2024-03-23T08:51:27;17.95;;;11.77;;
27223;SDS011;14965;50.660;13.226;2024-03-23T08:53:53;15.48;;;10.75;;
27223;SDS011;14965;50.660;13.226;2024-03-23T08:56:20;19.45;;;12.55;;
27223;SDS011;14965;50.660;13.226;2024-03-23T08:58:46;22.60;;;13.00;;
27223;SDS011;14965;50.660;13.226;2024-03-23T09:01:12;20.17;;;12.27;;
27223;SDS011;14965;50.660;13.226;2024-03-23T09:03:39;17.80;;;11.43;;
27223;SDS011;14965;50.660;13.226;2024-03-23T09:06:06;19.83;;;11.93;;
27223;SDS011;14965;50.660;13.226;2024-03-23T09:08:33;17.97;;;12.10;;
27223;SDS011;14965;50.660;13.226;2024-03-23T09:11:00;19.33;;;11.63;;
27223;SDS011;14965;50.660;13.226;2024-03-23T09:13:30;17.77;;;11.05;;
27223;SDS011;14965;50.660;13.226;2024-03-23T09:15:57;16.17;;;10.93;;
27223;SDS011;14965;50.660;13.226;2024-03-23T09:18:22;16.88;;;10.23;;
27223;SDS011;14965;50.660;13.226;2024-03-23T09:20:48;16.63;;;10.18;;
27223;SDS011;14965;50.660;13.226;2024-03-23T09:23:14;14.68;;;9.95;;
27223;SDS011;14965;50.660;13.226;2024-03-23T09:25:40;15.07;;;9.73;;
27223;SDS011;14965;50.660;13.226;2024-03-23T09:28:06;17.20;;;10.50;;
27223;SDS011;14965;50.660;13.226;2024-03-23T09:30:34;15.65;;;9.95;;
27223;SDS011;14965;50.660;13.226;2024-03-23T09:33:02;14.93;;;9.97;;
27223;SDS011;14965;50.660;13.226;2024-03-23T09:35:28;18.95;;;10.40;;
27223;SDS011;14965;50.660;13.226;2024-03-23T09:37:54;11.90;;;7.22;;
27223;SDS011;14965;50.660;13.226;2024-03-23T09:40:20;7.07;;;5.15;;
27223;SDS011;14965;50.660;13.226;2024-03-23T09:42:49;9.20;;;5.60;;
27223;SDS011;14965;50.660;13.226;2024-03-23T09:45:16;7.95;;;4.90;;
27223;SDS011;14965;50.660;13.226;2024-03-23T09:47:47;9.15;;;4.97;;
27223;SDS011;14965;50.660;13.226;2024-03-23T09:50:14;11.15;;;5.88;;
27223;SDS011;14965;50.660;13.226;2024-03-23T09:52:40;96.43;;;7.00;;
27223;SDS011;14965;50.660;13.226;2024-03-23T09:55:06;93.30;;;6.38;;
27223;SDS011;14965;50.660;13.226;2024-03-23T09:57:33;271.33;;;9.05;;
27223;SDS011;14965;50.660;13.226;2024-03-23T09:59:59;324.85;;;9.57;;
27223;SDS011;14965;50.660;13.226;2024-03-23T10:02:26;636.72;;;18.67;;
27223;SDS011;14965;50.660;13.226;2024-03-23T10:04:55;377.98;;;10.88;;
27223;SDS011;14965;50.660;13.226;2024-03-23T10:07:21;464.98;;;12.85;;
27223;SDS011;14965;50.660;13.226;2024-03-23T10:09:47;256.33;;;8.38;;
27223;SDS011;14965;50.660;13.226;2024-03-23T10:12:13;351.35;;;10.23;;
27223;SDS011;14965;50.660;13.226;2024-03-23T10:14:41;300.45;;;8.93;;
27223;SDS011;14965;50.660;13.226;2024-03-23T10:17:14;2.40;;;1.50;;
27223;SDS011;14965;50.660;13.226;2024-03-23T10:19:42;4.18;;;1.98;;
27223;SDS011;14965;50.660;13.226;2024-03-23T10:22:09;2.70;;;1.70;;
27223;SDS011;14965;50.660;13.226;2024-03-23T10:24:39;1.58;;;1.48;;
27223;SDS011;14965;50.660;13.226;2024-03-23T10:27:05;2.67;;;0.80;;
27223;SDS011;14965;50.660;13.226;2024-03-23T10:29:31;0.88;;;0.60;;
27223;SDS011;14965;50.660;13.226;2024-03-23T10:34:39;1.52;;;1.13;;
27223;SDS011;14965;50.660;13.226;2024-03-23T10:37:05;0.73;;;0.60;;
27223;SDS011;14965;50.660;13.226;2024-03-23T10:39:34;1.02;;;0.80;;
27223;SDS011;14965;50.660;13.226;2024-03-23T10:42:02;0.70;;;0.60;;
27223;SDS011;14965;50.660;13.226;2024-03-23T10:44:30;2.28;;;0.90;;
27223;SDS011;14965;50.660;13.226;2024-03-23T10:46:57;0.98;;;0.82;;
27223;SDS011;14965;50.660;13.226;2024-03-23T10:49:24;1.25;;;0.80;;
27223;SDS011;14965;50.660;13.226;2024-03-23T10:51:51;0.60;;;0.60;;
27223;SDS011;14965;50.660;13.226;2024-03-23T10:54:17;1.02;;;0.88;;
27223;SDS011;14965;50.660;13.226;2024-03-23T10:56:46;2.72;;;0.95;;
27223;SDS011;14965;50.660;13.226;2024-03-23T10:59:15;2.13;;;1.70;;
27223;SDS011;14965;50.660;13.226;2024-03-23T11:01:53;1.40;;;1.08;;
27223;SDS011;14965;50.660;13.226;2024-03-23T11:04:29;2.47;;;1.70;;
27223;SDS011;14965;50.660;13.226;2024-03-23T11:06:56;2.97;;;2.03;;
27223;SDS011;14965;50.660;13.226;2024-03-23T11:09:40;1.80;;;1.50;;
27223;SDS011;14965;50.660;13.226;2024-03-23T11:12:18;1.45;;;1.23;;
27223;SDS011;14965;50.660;13.226;2024-03-23T11:14:52;1.88;;;1.60;;
27223;SDS011;14965;50.660;13.226;2024-03-23T11:17:21;1.70;;;1.60;;
27223;SDS011;14965;50.660;13.226;2024-03-23T11:19:53;2.23;;;1.77;;
27223;SDS011;14965;50.660;13.226;2024-03-23T11:25:12;2.45;;;1.80;;
27223;SDS011;14965;50.660;13.226;2024-03-23T11:27:40;1.92;;;1.60;;
27223;SDS011;14965;50.660;13.226;2024-03-23T11:30:11;1.70;;;1.60;;
27223;SDS011;14965;50.660;13.226;2024-03-23T11:32:42;2.10;;;1.70;;
27223;SDS011;14965;50.660;13.226;2024-03-23T11:35:09;1.63;;;1.35;;
27223;SDS011;14965;50.660;13.226;2024-03-23T11:37:36;2.15;;;1.60;;
27223;SDS011;14965;50.660;13.226;2024-03-23T11:40:16;1.88;;;1.67;;
27223;SDS011;14965;50.660;13.226;2024-03-23T11:42:44;1.70;;;1.60;;
27223;SDS011;14965;50.660;13.226;2024-03-23T11:45:11;1.55;;;1.45;;
27223;SDS011;14965;50.660;13.226;2024-03-23T11:47:38;3.28;;;1.73;;
27223;SDS011;14965;50.660;13.226;2024-03-23T11:50:04;2.33;;;1.90;;
27223;SDS011;14965;50.660;13.226;2024-03-23T11:52:30;2.45;;;2.25;;
27223;SDS011;14965;50.660;13.226;2024-03-23T11:55:02;3.33;;;2.70;;
27223;SDS011;14965;50.660;13.226;2024-03-23T11:57:29;2.85;;;2.58;;
27223;SDS011;14965;50.660;13.226;2024-03-23T11:59:57;3.90;;;3.13;;
27223;SDS011;14965;50.660;13.226;2024-03-23T12:02:23;3.72;;;3.20;;
27223;SDS011;14965;50.660;13.226;2024-03-23T12:04:49;4.25;;;3.50;;
27223;SDS011;14965;50.660;13.226;2024-03-23T12:07:15;4.40;;;3.78;;
27223;SDS011;14965;50.660;13.226;2024-03-23T12:09:43;4.25;;;3.40;;
27223;SDS011;14965;50.660;13.226;2024-03-23T12:12:10;6.38;;;3.83;;
27223;SDS011;14965;50.660;13.226;2024-03-23T12:14:39;3.83;;;3.30;;
27223;SDS011;14965;50.660;13.226;2024-03-23T12:17:10;4.05;;;3.40;;
27223;SDS011;14965;50.660;13.226;2024-03-23T12:19:37;2.97;;;2.63;;
27223;SDS011;14965;50.660;13.226;2024-03-23T12:22:03;3.13;;;2.83;;
27223;SDS011;14965;50.660;13.226;2024-03-23T12:24:30;5.72;;;3.17;;
27223;SDS011;14965;50.660;13.226;2024-03-23T12:26:59;4.35;;;3.03;;
27223;SDS011;14965;50.660;13.226;2024-03-23T12:29:28;3.58;;;2.90;;
27223;SDS011;14965;50.660;13.226;2024-03-23T12:31:54;2.97;;;2.53;;
27223;SDS011;14965;50.660;13.226;2024-03-23T12:34:21;2.78;;;2.30;;
27223;SDS011;14965;50.660;13.226;2024-03-23T12:36:47;3.72;;;2.85;;
27223;SDS011;14965;50.660;13.226;2024-03-23T12:39:13;2.90;;;2.60;;
27223;SDS011;14965;50.660;13.226;2024-03-23T12:41:39;4.53;;;3.60;;
27223;SDS011;14965;50.660;13.226;2024-03-23T12:44:05;4.53;;;3.20;;
27223;SDS011;14965;50.660;13.226;2024-03-23T12:46:31;3.17;;;2.88;;
27223;SDS011;14965;50.660;13.226;2024-03-23T12:48:56;2.40;;;2.20;;
27223;SDS011;14965;50.660;13.226;2024-03-23T12:51:24;3.35;;;2.63;;
27223;SDS011;14965;50.660;13.226;2024-03-23T12:53:49;2.95;;;2.15;;
27223;SDS011;14965;50.660;13.226;2024-03-23T12:56:16;4.15;;;3.20;;
27223;SDS011;14965;50.660;13.226;2024-03-23T12:58:41;4.25;;;2.97;;
27223;SDS011;14965;50.660;13.226;2024-03-23T13:01:07;6.85;;;4.15;;
27223;SDS011;14965;50.660;13.226;2024-03-23T13:03:33;4.15;;;3.28;;
27223;SDS011;14965;50.660;13.226;2024-03-23T13:05:59;4.95;;;2.58;;
27223;SDS011;14965;50.660;13.226;2024-03-23T13:08:26;4.60;;;2.28;;
27223;SDS011;14965;50.660;13.226;2024-03-23T13:10:52;5.88;;;3.30;;
27223;SDS011;14965;50.660;13.226;2024-03-23T13:13:18;5.35;;;2.58;;
27223;SDS011;14965;50.660;13.226;2024-03-23T13:15:49;4.68;;;2.80;;
27223;SDS011;14965;50.660;13.226;2024-03-23T13:18:15;6.72;;;2.80;;
27223;SDS011;14965;50.660;13.226;2024-03-23T13:20:41;5.30;;;3.03;;
27223;SDS011;14965;50.660;13.226;2024-03-23T13:23:07;4.88;;;3.15;;
27223;SDS011;14965;50.660;13.226;2024-03-23T13:25:34;6.68;;;3.83;;
27223;SDS011;14965;50.660;13.226;2024-03-23T13:28:00;9.30;;;3.65;;
27223;SDS011;14965;50.660;13.226;2024-03-23T13:30:25;7.00;;;3.65;;
27223;SDS011;14965;50.660;13.226;2024-03-23T13:32:51;7.75;;;3.60;;
27223;SDS011;14965;50.660;13.226;2024-03-23T13:35:17;8.15;;;3.53;;
27223;SDS011;14965;50.660;13.226;2024-03-23T13:37:43;8.90;;;3.45;;
27223;SDS011;14965;50.660;13.226;2024-03-23T13:40:09;7.95;;;3.30;;
27223;SDS011;14965;50.660;13.226;2024-03-23T13:42:38;9.25;;;3.20;;
27223;SDS011;14965;50.660;13.226;2024-03-23T13:45:04;9.43;;;3.70;;
27223;SDS011;14965;50.660;13.226;2024-03-23T13:47:30;8.23;;;3.50;;
27223;SDS011;14965;50.660;13.226;2024-03-23T13:49:56;9.05;;;4.40;;
27223;SDS011;14965;50.660;13.226;2024-03-23T13:52:22;8.57;;;4.55;;
27223;SDS011;14965;50.660;13.226;2024-03-23T13:54:48;9.82;;;4.68;;
27223;SDS011;14965;50.660;13.226;2024-03-23T13:57:14;8.98;;;4.20;;
27223;SDS011;14965;50.660;13.226;2024-03-23T13:59:41;13.98;;;4.60;;
27223;SDS011;14965;50.660;13.226;2024-03-23T14:02:07;10.07;;;4.30;;
27223;SDS011;14965;50.660;13.226;2024-03-23T14:04:33;9.07;;;4.50;;
27223;SDS011;14965;50.660;13.226;2024-03-23T14:06:59;13.77;;;4.30;;
27223;SDS011;14965;50.660;13.226;2024-03-23T14:09:24;9.38;;;4.30;;
27223;SDS011;14965;50.660;13.226;2024-03-23T14:11:50;11.82;;;4.43;;
27223;SDS011;14965;50.660;13.226;2024-03-23T14:14:16;9.63;;;4.10;;
27223;SDS011;14965;50.660;13.226;2024-03-23T14:16:44;13.65;;;3.85;;
27223;SDS011;14965;50.660;13.226;2024-03-23T14:19:09;15.52;;;4.20;;
27223;SDS011;14965;50.660;13.226;2024-03-23T14:21:35;11.60;;;4.10;;
27223;SDS011;14965;50.660;13.226;2024-03-23T14:24:01;9.18;;;3.85;;
27223;SDS011;14965;50.660;13.226;2024-03-23T14:26:28;13.27;;;4.85;;
27223;SDS011;14965;50.660;13.226;2024-03-23T14:28:54;14.55;;;4.07;;
27223;SDS011;14965;50.660;13.226;2024-03-23T14:31:20;16.77;;;10.02;;
27223;SDS011;14965;50.660;13.226;2024-03-23T14:33:47;17.52;;;6.28;;
27223;SDS011;14965;50.660;13.226;2024-03-23T14:36:13;13.68;;;6.55;;
27223;SDS011;14965;50.660;13.226;2024-03-23T14:38:39;10.68;;;4.60;;
27223;SDS011;14965;50.660;13.226;2024-03-23T14:41:04;19.02;;;8.57;;
27223;SDS011;14965;50.660;13.226;2024-03-23T14:43:30;11.80;;;5.20;;
27223;SDS011;14965;50.660;13.226;2024-03-23T14:46:06;9.90;;;5.10;;
27223;SDS011;14965;50.660;13.226;2024-03-23T14:48:33;16.25;;;5.10;;
27223;SDS011;14965;50.660;13.226;2024-03-23T14:51:01;18.05;;;6.25;;
27223;SDS011;14965;50.660;13.226;2024-03-23T14:53:28;17.45;;;5.72;;
27223;SDS011;14965;50.660;13.226;2024-03-23T14:55:54;22.88;;;10.45;;
27223;SDS011;14965;50.660;13.226;2024-03-23T14:58:20;15.45;;;6.70;;
27223;SDS011;14965;50.660;13.226;2024-03-23T15:00:46;25.13;;;15.15;;
27223;SDS011;14965;50.660;13.226;2024-03-23T15:03:12;12.52;;;5.20;;
27223;SDS011;14965;50.660;13.226;2024-03-23T15:05:38;11.18;;;5.20;;
27223;SDS011;14965;50.660;13.226;2024-03-23T15:08:06;17.08;;;5.55;;
27223;SDS011;14965;50.660;13.226;2024-03-23T15:10:32;17.58;;;5.53;;
27223;SDS011;14965;50.660;13.226;2024-03-23T15:12:58;13.50;;;5.90;;
27223;SDS011;14965;50.660;13.226;2024-03-23T15:15:24;17.05;;;5.70;;